createdAt,value
2023-03-11T00:00:52.520Z,0.00
2023-03-11T00:03:20.497Z,0.10
2023-03-11T00:05:47.473Z,0.10
2023-03-11T00:08:18.472Z,0.10
2023-03-11T00:10:46.367Z,0.10
2023-03-11T00:13:15.292Z,0.20
2023-03-11T00:15:43.865Z,0.20
2023-03-11T00:18:11.558Z,0.20
2023-03-11T00:20:40.419Z,0.20
2023-03-11T00:23:08.311Z,0.20
2023-03-11T00:25:37.287Z,0.20
2023-03-11T00:28:04.846Z,0.20
2023-03-11T00:30:31.666Z,0.20
2023-03-11T00:32:58.870Z,0.20
2023-03-11T00:35:28.871Z,0.20
2023-03-11T00:38:15.868Z,0.20
2023-03-11T00:40:44.285Z,0.20
2023-03-11T00:43:11.324Z,0.90
2023-03-11T00:45:38.527Z,0.20
2023-03-11T00:48:05.569Z,0.20
2023-03-11T00:50:34.242Z,0.20
2023-03-11T00:53:01.456Z,0.20
2023-03-11T00:55:30.223Z,0.20
2023-03-11T00:57:59.855Z,0.20
2023-03-11T01:00:28.026Z,0.20
2023-03-11T01:02:55.650Z,0.20
2023-03-11T01:05:24.899Z,0.20
2023-03-11T01:07:51.538Z,0.20
2023-03-11T01:10:18.402Z,0.20
2023-03-11T01:12:45.163Z,0.10
2023-03-11T01:15:24.744Z,0.10
2023-03-11T01:17:51.470Z,0.10
2023-03-11T01:20:18.421Z,0.10
2023-03-11T01:22:45.186Z,0.10
2023-03-11T01:25:14.237Z,0.10
2023-03-11T01:27:41.148Z,0.00
2023-03-11T01:30:08.988Z,0.00
2023-03-11T01:32:35.890Z,0.00
2023-03-11T01:35:02.728Z,0.00
2023-03-11T01:37:29.688Z,0.00
2023-03-11T01:39:56.372Z,0.00
2023-03-11T01:42:23.041Z,1.10
2023-03-11T01:44:49.717Z,-0.10
2023-03-11T01:47:37.723Z,-0.10
2023-03-11T01:50:08.735Z,-0.10
2023-03-11T01:52:35.657Z,-0.10
2023-03-11T01:55:02.440Z,-0.10
2023-03-11T01:57:29.667Z,-0.20
2023-03-11T01:59:58.257Z,-0.20
2023-03-11T02:02:28.763Z,-0.20
2023-03-11T02:04:55.870Z,-0.20
2023-03-11T02:07:22.748Z,-0.20
2023-03-11T02:09:49.394Z,-0.30
2023-03-11T02:12:16.068Z,-0.30
2023-03-11T02:14:46.172Z,-0.40
2023-03-11T02:17:13.167Z,-0.40
2023-03-11T02:20:09.942Z,-0.40
2023-03-11T02:22:36.639Z,-0.50
2023-03-11T02:25:35.045Z,-0.50
2023-03-11T02:28:03.740Z,-0.50
2023-03-11T02:30:31.518Z,-0.60
2023-03-11T02:32:58.937Z,-0.60
2023-03-11T02:35:25.961Z,-0.60
2023-03-11T02:37:54.375Z,-0.60
2023-03-11T02:40:24.267Z,-0.70
2023-03-11T02:42:53.922Z,-0.70
2023-03-11T02:45:23.037Z,-0.80
2023-03-11T02:47:50.599Z,-0.90
2023-03-11T02:50:18.242Z,-0.90
2023-03-11T02:52:45.286Z,-1.00
2023-03-11T02:55:12.036Z,-1.00
2023-03-11T02:57:39.069Z,-1.10
2023-03-11T03:00:14.332Z,-1.10
2023-03-11T03:02:41.806Z,-1.20
2023-03-11T03:05:09.536Z,-1.20
2023-03-11T03:07:36.551Z,-1.30
2023-03-11T03:10:04.949Z,-1.30
2023-03-11T03:12:31.738Z,-1.30
2023-03-11T03:14:58.488Z,-1.30
2023-03-11T03:17:25.472Z,-1.30
2023-03-11T03:19:52.143Z,-1.20
2023-03-11T03:22:18.822Z,-1.30
2023-03-11T03:24:45.621Z,-1.40
2023-03-11T03:27:12.283Z,-1.40
2023-03-11T03:29:38.936Z,-1.40
2023-03-11T03:32:05.992Z,-1.40
2023-03-11T03:34:32.802Z,-1.50
2023-03-11T03:36:59.453Z,-1.40
2023-03-11T03:39:26.508Z,-1.50
2023-03-11T03:41:54.121Z,-1.50
2023-03-11T03:44:20.773Z,-1.50
2023-03-11T03:46:47.466Z,-1.50
2023-03-11T03:49:14.122Z,-1.50
2023-03-11T03:51:40.774Z,-1.50
2023-03-11T03:54:07.469Z,-1.60
2023-03-11T03:56:34.152Z,-1.60
2023-03-11T03:59:00.828Z,-1.60
2023-03-11T04:01:27.696Z,-1.60
2023-03-11T04:03:54.389Z,-1.60
2023-03-11T04:06:26.453Z,-1.10
2023-03-11T04:08:54.284Z,-1.60
2023-03-11T04:11:21.558Z,-1.70
2023-03-11T04:13:48.504Z,-1.70
2023-03-11T04:16:23.305Z,-1.70
2023-03-11T04:18:49.958Z,-1.60
2023-03-11T04:21:16.890Z,-1.60
2023-03-11T04:23:43.527Z,-1.70
2023-03-11T04:26:10.271Z,-1.70
2023-03-11T04:28:36.999Z,-1.70
2023-03-11T04:31:04.106Z,-1.70
2023-03-11T04:33:31.241Z,-1.70
2023-03-11T04:35:58.216Z,-1.70
2023-03-11T04:38:25.055Z,-1.70
2023-03-11T04:40:52.032Z,-1.70
2023-03-11T04:43:18.649Z,-2.60
2023-03-11T04:45:45.309Z,-1.80
2023-03-11T04:48:11.954Z,-1.80
2023-03-11T04:50:38.596Z,-1.80
2023-03-11T04:53:05.290Z,-1.80
2023-03-11T04:55:33.240Z,-1.80
2023-03-11T04:57:59.937Z,-1.90
2023-03-11T05:00:26.638Z,-1.90
2023-03-11T05:02:53.513Z,-1.90
2023-03-11T05:05:20.433Z,-1.90
2023-03-11T05:07:47.568Z,-1.90
2023-03-11T05:10:14.579Z,-1.90
2023-03-11T05:12:41.489Z,-1.90
2023-03-11T05:15:08.448Z,-1.90
2023-03-11T05:17:35.134Z,-2.00
2023-03-11T05:20:01.832Z,-0.80
2023-03-11T05:22:28.463Z,-2.00
2023-03-11T05:24:55.096Z,-3.10
2023-03-11T05:27:21.795Z,-2.00
2023-03-11T05:29:48.465Z,-2.00
2023-03-11T05:32:15.615Z,-2.00
2023-03-11T05:34:42.356Z,-2.00
2023-03-11T05:37:09.233Z,-2.00
2023-03-11T05:39:37.670Z,-2.00
2023-03-11T05:42:05.632Z,-2.00
2023-03-11T05:44:32.797Z,-2.00
2023-03-11T05:46:59.617Z,-2.00
2023-03-11T05:49:26.844Z,-2.00
2023-03-11T05:51:58.623Z,-2.00
2023-03-11T05:54:25.708Z,-2.00
2023-03-11T05:56:52.426Z,-1.90
2023-03-11T05:59:19.345Z,-1.90
2023-03-11T06:01:46.020Z,-1.90
2023-03-11T06:04:13.083Z,-1.90
2023-03-11T06:06:41.457Z,-1.90
2023-03-11T06:09:12.388Z,-1.90
2023-03-11T06:11:39.102Z,-1.90
2023-03-11T06:14:05.983Z,-1.90
2023-03-11T06:16:32.637Z,-1.80
2023-03-11T06:19:02.505Z,-1.70
2023-03-11T06:21:29.143Z,-1.70
2023-03-11T06:23:55.819Z,-1.70
2023-03-11T06:26:23.362Z,-1.60
2023-03-11T06:28:51.748Z,-1.60
2023-03-11T06:31:28.727Z,-1.60
2023-03-11T06:33:56.107Z,-1.60
2023-03-11T06:36:23.449Z,-1.50
2023-03-11T06:38:52.184Z,-1.40
2023-03-11T06:41:18.816Z,-1.30
2023-03-11T06:43:45.494Z,-1.30
2023-03-11T06:46:17.509Z,-1.30
2023-03-11T06:48:45.767Z,-1.30
2023-03-11T06:51:13.286Z,-1.20
2023-03-11T06:53:41.530Z,-1.20
2023-03-11T06:56:13.202Z,-1.20
2023-03-11T06:58:41.480Z,-1.20
2023-03-11T07:01:14.514Z,-1.20
2023-03-11T07:03:41.675Z,-1.30
2023-03-11T07:06:16.588Z,-1.20
2023-03-11T07:08:43.162Z,-1.10
2023-03-11T07:11:13.359Z,-1.10
2023-03-11T07:13:40.059Z,-1.10
2023-03-11T07:16:15.978Z,-1.00
2023-03-11T07:18:43.604Z,-0.90
2023-03-11T07:21:12.824Z,-0.80
2023-03-11T07:23:39.771Z,-0.70
2023-03-11T07:26:10.284Z,-0.70
2023-03-11T07:28:37.580Z,-0.60
2023-03-11T07:31:08.923Z,-0.50
2023-03-11T07:33:35.930Z,-0.50
2023-03-11T07:36:10.954Z,-0.40
2023-03-11T07:38:38.074Z,-0.30
2023-03-11T07:41:05.543Z,-0.10
2023-03-11T07:43:32.700Z,0.00
2023-03-11T07:46:22.554Z,0.10
2023-03-11T07:48:50.369Z,0.20
2023-03-11T07:51:18.367Z,0.40
2023-03-11T07:53:45.175Z,0.50
2023-03-11T07:56:13.236Z,0.50
2023-03-11T07:58:40.597Z,0.60
2023-03-11T08:01:27.199Z,0.60
2023-03-11T08:03:58.724Z,0.60
2023-03-11T08:06:31.317Z,0.60
2023-03-11T08:09:02.224Z,0.60
2023-03-11T08:11:30.692Z,0.50
2023-03-11T08:14:00.741Z,0.50
2023-03-11T08:16:27.884Z,0.60
2023-03-11T08:18:54.693Z,0.70
2023-03-11T08:21:26.578Z,0.80
2023-03-11T08:23:57.197Z,0.90
2023-03-11T08:26:23.913Z,1.00
2023-03-11T08:28:50.633Z,1.10
2023-03-11T08:31:19.701Z,1.20
2023-03-11T08:33:49.935Z,1.30
2023-03-11T08:36:17.450Z,1.50
2023-03-11T08:38:44.256Z,1.70
2023-03-11T08:41:11.114Z,1.80
2023-03-11T08:43:37.935Z,1.80
2023-03-11T08:46:08.458Z,1.90
2023-03-11T08:48:37.022Z,2.00
2023-03-11T08:51:12.886Z,2.10
2023-03-11T08:53:40.179Z,2.00
2023-03-11T08:56:07.308Z,1.80
2023-03-11T08:58:33.969Z,1.80
2023-03-11T09:01:00.636Z,1.80
2023-03-11T09:03:27.291Z,1.90
2023-03-11T09:06:01.825Z,1.80
2023-03-11T09:08:29.056Z,1.90
2023-03-11T09:10:55.841Z,2.10
2023-03-11T09:13:22.652Z,2.40
2023-03-11T09:15:50.585Z,2.60
2023-03-11T09:18:17.719Z,2.90
2023-03-11T09:20:44.881Z,2.90
2023-03-11T09:23:13.527Z,3.00
2023-03-11T09:25:40.227Z,3.00
2023-03-11T09:28:06.971Z,2.90
2023-03-11T09:30:33.954Z,2.80
2023-03-11T09:33:00.774Z,2.50
2023-03-11T09:35:27.637Z,2.20
2023-03-11T09:37:54.291Z,2.10
2023-03-11T09:40:23.190Z,2.10
2023-03-11T09:43:14.840Z,2.20
2023-03-11T09:45:47.824Z,2.10
2023-03-11T09:48:16.628Z,2.10
2023-03-11T09:50:49.059Z,2.20
2023-03-11T09:53:44.794Z,2.30
2023-03-11T09:56:20.732Z,2.50
2023-03-11T09:58:48.272Z,2.80
2023-03-11T10:01:33.777Z,2.90
2023-03-11T10:04:26.906Z,3.20
2023-03-11T10:06:53.923Z,3.40
2023-03-11T10:09:29.202Z,3.40
2023-03-11T10:12:01.771Z,3.50
2023-03-11T10:15:02.380Z,3.50
2023-03-11T10:17:53.212Z,3.40
2023-03-11T10:20:43.220Z,3.10
2023-03-11T10:23:13.096Z,3.30
2023-03-11T10:25:57.067Z,3.50
2023-03-11T10:28:33.855Z,3.50
2023-03-11T10:31:35.091Z,3.60
2023-03-11T10:34:28.180Z,3.70
2023-03-11T10:37:06.803Z,3.70
2023-03-11T10:39:34.058Z,3.60
2023-03-11T10:42:03.264Z,3.40
2023-03-11T10:44:37.770Z,3.00
2023-03-11T10:47:05.425Z,2.80
2023-03-11T10:49:32.340Z,2.60
2023-03-11T10:51:59.013Z,2.50
2023-03-11T10:54:35.245Z,2.30
2023-03-11T10:57:05.145Z,2.20
2023-03-11T10:59:34.831Z,2.00
2023-03-11T11:02:17.769Z,2.00
2023-03-11T11:04:44.656Z,2.20
2023-03-11T11:07:35.083Z,2.50
2023-03-11T11:10:22.073Z,2.80
2023-03-11T11:12:52.063Z,3.20
2023-03-11T11:15:57.117Z,3.60
2023-03-11T11:18:26.778Z,3.50
2023-03-11T11:21:02.037Z,3.50
2023-03-11T11:23:50.900Z,3.60
2023-03-11T11:26:22.259Z,3.80
2023-03-11T11:29:10.757Z,4.00
2023-03-11T11:31:39.317Z,4.00
2023-03-11T11:34:25.315Z,3.90
2023-03-11T11:36:51.962Z,3.70
2023-03-11T11:39:20.469Z,3.70
2023-03-11T11:41:48.485Z,3.60
2023-03-11T11:44:19.735Z,3.60
2023-03-11T11:46:57.025Z,3.50
2023-03-11T11:49:31.868Z,3.50
2023-03-11T11:52:20.776Z,3.60
2023-03-11T11:54:57.092Z,3.60
2023-03-11T11:57:24.163Z,3.60
2023-03-11T11:59:50.884Z,3.50
2023-03-11T12:02:36.514Z,3.50
2023-03-11T12:05:15.141Z,3.50
2023-03-11T12:07:59.961Z,3.50
2023-03-11T12:10:36.604Z,3.50
2023-03-11T12:13:21.875Z,3.60
2023-03-11T12:16:00.618Z,3.60
2023-03-11T12:18:35.191Z,3.60
2023-03-11T12:21:27.457Z,3.60
2023-03-11T12:24:33.303Z,3.60
2023-03-11T12:27:01.928Z,3.70
2023-03-11T12:29:30.177Z,3.80
2023-03-11T12:31:57.450Z,3.80
2023-03-11T12:34:27.608Z,3.80
2023-03-11T12:36:57.214Z,3.90
2023-03-11T12:39:28.720Z,3.80
2023-03-11T12:42:11.211Z,3.80
2023-03-11T12:44:39.288Z,3.90
2023-03-11T12:47:11.337Z,3.90
2023-03-11T12:49:39.181Z,3.80
2023-03-11T12:52:08.894Z,3.80
2023-03-11T12:54:37.309Z,3.80
2023-03-11T12:57:17.893Z,3.80
2023-03-11T13:00:26.719Z,3.80
2023-03-11T13:03:05.850Z,3.90
2023-03-11T13:05:51.197Z,3.80
2023-03-11T13:08:23.279Z,3.80
2023-03-11T13:10:51.582Z,3.90
2023-03-11T13:13:33.509Z,3.90
2023-03-11T13:16:15.619Z,4.00
2023-03-11T13:18:44.101Z,4.00
2023-03-11T13:21:34.559Z,4.00
2023-03-11T13:24:29.808Z,4.00
2023-03-11T13:27:00.283Z,3.90
2023-03-11T13:29:51.913Z,4.00
2023-03-11T13:32:40.329Z,4.00
2023-03-11T13:35:28.784Z,4.00
2023-03-11T13:38:33.043Z,4.00
2023-03-11T13:41:01.944Z,4.00
2023-03-11T13:43:28.687Z,4.00
2023-03-11T13:45:57.813Z,4.00
2023-03-11T13:48:31.149Z,3.90
2023-03-11T13:51:05.473Z,3.90
2023-03-11T13:53:40.883Z,3.90
2023-03-11T13:56:17.559Z,4.00
2023-03-11T13:58:44.243Z,5.10
2023-03-11T14:01:16.213Z,4.10
2023-03-11T14:03:44.609Z,4.20
2023-03-11T14:06:20.795Z,4.10
2023-03-11T14:08:55.334Z,4.00
2023-03-11T14:11:29.229Z,3.90
2023-03-11T14:13:56.423Z,3.90
2023-03-11T14:16:33.329Z,4.00
2023-03-11T14:19:08.609Z,3.90
2023-03-11T14:21:35.641Z,4.00
2023-03-11T14:24:03.157Z,4.00
2023-03-11T14:26:34.025Z,4.00
2023-03-11T14:29:02.836Z,4.00
2023-03-11T14:31:35.201Z,4.10
2023-03-11T14:34:04.843Z,4.20
2023-03-11T14:36:40.485Z,4.20
2023-03-11T14:39:31.921Z,4.30
2023-03-11T14:42:04.493Z,4.30
2023-03-11T14:44:34.110Z,4.30
2023-03-11T14:47:08.173Z,4.30
2023-03-11T14:49:34.992Z,4.30
2023-03-11T14:52:05.603Z,4.40
2023-03-11T14:54:33.927Z,4.40
2023-03-11T14:57:23.632Z,4.40
2023-03-11T14:59:51.225Z,4.50
2023-03-11T15:02:38.199Z,4.40
2023-03-11T15:05:22.170Z,4.50
2023-03-11T15:07:50.229Z,4.40
2023-03-11T15:10:16.941Z,4.40
2023-03-11T15:12:45.551Z,4.40
2023-03-11T15:15:24.094Z,4.40
2023-03-11T15:17:59.184Z,4.30
2023-03-11T15:20:32.575Z,4.20
2023-03-11T15:23:02.082Z,4.10
2023-03-11T15:25:39.160Z,4.10
2023-03-11T15:28:36.568Z,4.00
2023-03-11T15:31:21.558Z,3.90
2023-03-11T15:33:48.913Z,3.90
2023-03-11T15:36:35.764Z,3.90
2023-03-11T15:39:25.635Z,3.80
2023-03-11T15:42:07.313Z,3.80
2023-03-11T15:44:41.881Z,3.70
2023-03-11T15:47:16.658Z,3.70
2023-03-11T15:49:43.229Z,3.70
2023-03-11T15:52:10.406Z,3.60
2023-03-11T15:54:38.147Z,3.60
2023-03-11T15:57:08.357Z,3.60
2023-03-11T15:59:36.354Z,3.50
2023-03-11T16:02:03.351Z,3.50
2023-03-11T16:04:30.254Z,3.40
2023-03-11T16:07:07.525Z,3.40
2023-03-11T16:09:35.322Z,3.40
2023-03-11T16:12:02.685Z,3.40
2023-03-11T16:14:29.544Z,3.40
2023-03-11T16:16:56.276Z,3.40
2023-03-11T16:19:22.951Z,3.40
2023-03-11T16:21:50.502Z,3.40
2023-03-11T16:24:21.249Z,3.40
2023-03-11T16:26:48.282Z,3.30
2023-03-11T16:29:19.474Z,3.30
2023-03-11T16:31:46.856Z,3.20
2023-03-11T16:34:13.523Z,3.20
2023-03-11T16:36:40.373Z,3.10
2023-03-11T16:39:07.037Z,3.10
2023-03-11T16:41:44.484Z,3.00
2023-03-11T16:44:11.498Z,3.00
2023-03-11T16:46:38.774Z,2.90
2023-03-11T16:49:05.937Z,2.90
2023-03-11T16:51:33.203Z,2.90
2023-03-11T16:54:00.058Z,2.80
2023-03-11T16:56:26.962Z,2.80
2023-03-11T16:58:53.698Z,2.80
2023-03-11T17:01:21.710Z,2.80
2023-03-11T17:03:53.108Z,2.70
2023-03-11T17:06:20.929Z,2.70
2023-03-11T17:08:49.538Z,2.60
2023-03-11T17:11:22.044Z,2.60
2023-03-11T17:13:50.043Z,2.50
2023-03-11T17:16:17.074Z,2.40
2023-03-11T17:18:43.818Z,2.40
2023-03-11T17:21:13.491Z,2.20
2023-03-11T17:23:40.526Z,2.20
2023-03-11T17:26:13.006Z,2.20
2023-03-11T17:28:40.169Z,2.10
2023-03-11T17:31:14.841Z,2.10
2023-03-11T17:33:42.159Z,2.10
2023-03-11T17:36:11.012Z,2.00
2023-03-11T17:38:37.739Z,1.90
2023-03-11T17:41:13.217Z,1.90
2023-03-11T17:43:40.101Z,1.90
2023-03-11T17:46:08.596Z,1.80
2023-03-11T17:48:35.381Z,1.80
2023-03-11T17:51:10.666Z,1.80
2023-03-11T17:53:40.374Z,1.70
2023-03-11T17:56:08.273Z,1.70
2023-03-11T17:58:35.579Z,1.70
2023-03-11T18:01:11.411Z,1.60
2023-03-11T18:03:38.056Z,1.60
2023-03-11T18:06:06.285Z,1.50
2023-03-11T18:08:35.185Z,1.50
2023-03-11T18:11:04.673Z,1.50
2023-03-11T18:13:32.476Z,1.40
2023-03-11T18:16:12.134Z,1.40
2023-03-11T18:18:39.478Z,1.40
2023-03-11T18:21:18.597Z,1.30
2023-03-11T18:23:45.772Z,1.30
2023-03-11T18:26:15.219Z,1.30
2023-03-11T18:28:42.397Z,1.20
2023-03-11T18:31:20.428Z,1.30
2023-03-11T18:33:52.114Z,1.20
2023-03-11T18:36:27.597Z,1.20
2023-03-11T18:38:56.853Z,1.10
2023-03-11T18:41:24.468Z,1.20
2023-03-11T18:43:58.659Z,1.10
2023-03-11T18:46:28.462Z,1.10
2023-03-11T18:48:57.545Z,1.00
2023-03-11T18:51:25.643Z,1.00
2023-03-11T18:53:52.301Z,0.90
2023-03-11T18:56:19.390Z,0.90
2023-03-11T18:58:46.599Z,0.90
2023-03-11T19:01:16.155Z,0.90
2023-03-11T19:03:44.220Z,0.80
2023-03-11T19:06:12.739Z,0.80
2023-03-11T19:08:40.418Z,0.80
2023-03-11T19:11:12.120Z,0.80
2023-03-11T19:13:46.808Z,0.80
2023-03-11T19:16:17.069Z,0.70
2023-03-11T19:18:43.819Z,0.30
2023-03-11T19:21:11.959Z,0.80
2023-03-11T19:23:39.861Z,0.70
2023-03-11T19:26:07.004Z,0.70
2023-03-11T19:28:34.020Z,0.70
2023-03-11T19:31:00.875Z,0.70
2023-03-11T19:33:28.160Z,0.70
2023-03-11T19:35:56.831Z,0.60
2023-03-11T19:38:24.222Z,0.50
2023-03-11T19:40:55.075Z,0.50
2023-03-11T19:43:23.790Z,0.50
2023-03-11T19:45:50.604Z,0.50
2023-03-11T19:48:17.402Z,0.50
2023-03-11T19:50:45.100Z,0.40
2023-03-11T19:53:11.808Z,0.40
2023-03-11T19:55:43.096Z,0.40
2023-03-11T19:58:09.906Z,0.30
2023-03-11T20:00:36.633Z,0.30
2023-03-11T20:03:03.358Z,0.30
2023-03-11T20:05:30.001Z,0.30
2023-03-11T20:07:56.660Z,0.20
2023-03-11T20:10:23.309Z,0.20
2023-03-11T20:13:01.828Z,0.20
2023-03-11T20:15:29.581Z,0.20
2023-03-11T20:17:56.481Z,0.20
2023-03-11T20:20:23.608Z,0.20
2023-03-11T20:22:50.318Z,0.10
2023-03-11T20:25:17.097Z,0.10
2023-03-11T20:27:44.638Z,0.10
2023-03-11T20:30:12.187Z,0.10
2023-03-11T20:32:39.625Z,0.10
2023-03-11T20:35:06.904Z,0.00
2023-03-11T20:37:33.668Z,0.00
2023-03-11T20:40:00.533Z,0.10
2023-03-11T20:42:27.244Z,0.00
2023-03-11T20:44:54.937Z,0.00
2023-03-11T20:47:21.790Z,0.00
2023-03-11T20:49:48.494Z,0.00
2023-03-11T20:52:15.571Z,-0.10
2023-03-11T20:54:42.262Z,-0.10
2023-03-11T20:57:09.061Z,-0.10
2023-03-11T20:59:35.736Z,-0.10
2023-03-11T21:02:03.397Z,-0.10
2023-03-11T21:04:30.074Z,-0.10
2023-03-11T21:06:57.545Z,-0.10
2023-03-11T21:09:24.683Z,-0.10
2023-03-11T21:11:51.508Z,-0.20
2023-03-11T21:14:19.346Z,-0.20
2023-03-11T21:16:46.450Z,-0.20
2023-03-11T21:19:13.826Z,-0.20
2023-03-11T21:21:40.897Z,-0.30
2023-03-11T21:24:08.141Z,-0.30
2023-03-11T21:26:35.283Z,-0.30
2023-03-11T21:29:01.997Z,-0.30
2023-03-11T21:31:29.745Z,-0.30
2023-03-11T21:33:57.928Z,-0.30
2023-03-11T21:36:24.680Z,-0.30
2023-03-11T21:38:51.537Z,-0.30
2023-03-11T21:41:26.103Z,-0.30
2023-03-11T21:43:56.912Z,-0.30
2023-03-11T21:46:26.550Z,-0.30
2023-03-11T21:48:53.458Z,-0.30
2023-03-11T21:51:21.268Z,-0.30
2023-03-11T21:53:48.164Z,-0.20
2023-03-11T21:56:15.527Z,-0.20
2023-03-11T21:58:42.672Z,-1.10
2023-03-11T22:01:13.421Z,-0.20
2023-03-11T22:03:40.973Z,-0.20
2023-03-11T22:06:10.240Z,-0.20
2023-03-11T22:08:37.170Z,-0.10
2023-03-11T22:11:07.063Z,-0.10
2023-03-11T22:13:33.682Z,0.50
2023-03-11T22:16:04.288Z,-0.10
2023-03-11T22:18:31.026Z,0.00
2023-03-11T22:20:59.247Z,0.00
2023-03-11T22:23:26.278Z,0.00
2023-03-11T22:25:53.065Z,0.00
2023-03-11T22:28:19.688Z,0.00
2023-03-11T22:30:46.357Z,0.00
2023-03-11T22:33:13.271Z,0.00
2023-03-11T22:35:39.997Z,0.00
2023-03-11T22:38:06.784Z,0.00
2023-03-11T22:40:34.899Z,0.10
2023-03-11T22:43:01.578Z,0.00
2023-03-11T22:45:28.240Z,0.10
2023-03-11T22:47:54.877Z,0.10
2023-03-11T22:50:21.760Z,0.10
2023-03-11T22:52:48.407Z,0.00
2023-03-11T22:55:15.416Z,0.00
2023-03-11T22:57:42.073Z,0.00
2023-03-11T23:00:17.630Z,0.00
2023-03-11T23:02:45.452Z,0.00
2023-03-11T23:05:13.345Z,0.00
2023-03-11T23:07:40.348Z,0.00
2023-03-11T23:10:08.691Z,0.00
2023-03-11T23:12:36.541Z,0.00
2023-03-11T23:15:09.330Z,0.00
2023-03-11T23:17:36.336Z,0.00
2023-03-11T23:20:05.258Z,0.40
2023-03-11T23:22:35.110Z,0.00
2023-03-11T23:25:03.045Z,-0.10
2023-03-11T23:27:29.763Z,-0.10
2023-03-11T23:29:56.436Z,-0.10
2023-03-11T23:32:23.175Z,0.00
2023-03-11T23:34:49.842Z,-0.10
2023-03-11T23:37:16.728Z,-0.10
2023-03-11T23:39:43.416Z,-0.10
2023-03-11T23:42:24.498Z,-0.10
2023-03-11T23:44:52.650Z,-0.10
2023-03-11T23:47:19.436Z,-0.10
2023-03-11T23:49:46.073Z,-0.10
2023-03-11T23:52:12.759Z,-0.10
2023-03-11T23:54:39.391Z,1.00
2023-03-11T23:57:06.094Z,-0.10
2023-03-11T23:59:32.803Z,-0.10
